sensor_id;sensor_type;location;lat;lon;timestamp;P1;durP1;ratioP1;P2;durP2;ratioP2
44658;SDS011;30378;50.186;8.644;2022-09-09T00:04:27;3.95;;;0.50;;
44658;SDS011;30378;50.186;8.644;2022-09-09T00:06:59;4.10;;;0.82;;
44658;SDS011;30378;50.186;8.644;2022-09-09T00:09:53;4.53;;;0.50;;
44658;SDS011;30378;50.186;8.644;2022-09-09T00:12:34;2.35;;;0.68;;
44658;SDS011;30378;50.186;8.644;2022-09-09T00:15:24;3.45;;;1.20;;
44658;SDS011;30378;50.186;8.644;2022-09-09T00:17:57;3.58;;;0.80;;
44658;SDS011;30378;50.186;8.644;2022-09-09T00:20:53;4.05;;;1.00;;
44658;SDS011;30378;50.186;8.644;2022-09-09T00:23:44;3.53;;;0.57;;
44658;SDS011;30378;50.186;8.644;2022-09-09T00:31:47;2.92;;;0.90;;
44658;SDS011;30378;50.186;8.644;2022-09-09T00:34:21;5.90;;;1.00;;
44658;SDS011;30378;50.186;8.644;2022-09-09T00:36:52;6.13;;;1.38;;
44658;SDS011;30378;50.186;8.644;2022-09-09T00:39:41;2.40;;;1.00;;
44658;SDS011;30378;50.186;8.644;2022-09-09T00:42:23;3.70;;;1.02;;
44658;SDS011;30378;50.186;8.644;2022-09-09T00:45:10;4.63;;;1.00;;
44658;SDS011;30378;50.186;8.644;2022-09-09T00:48:12;2.75;;;0.90;;
44658;SDS011;30378;50.186;8.644;2022-09-09T00:50:51;4.38;;;1.30;;
44658;SDS011;30378;50.186;8.644;2022-09-09T00:53:31;3.60;;;1.55;;
44658;SDS011;30378;50.186;8.644;2022-09-09T00:58:47;3.83;;;0.93;;
44658;SDS011;30378;50.186;8.644;2022-09-09T01:01:43;5.63;;;0.90;;
44658;SDS011;30378;50.186;8.644;2022-09-09T01:04:15;7.15;;;1.25;;
44658;SDS011;30378;50.186;8.644;2022-09-09T01:06:50;3.90;;;1.10;;
44658;SDS011;30378;50.186;8.644;2022-09-09T01:09:29;1.92;;;1.10;;
44658;SDS011;30378;50.186;8.644;2022-09-09T01:14:48;3.10;;;1.33;;
44658;SDS011;30378;50.186;8.644;2022-09-09T01:17:32;2.75;;;0.90;;
44658;SDS011;30378;50.186;8.644;2022-09-09T01:20:17;1.85;;;0.75;;
44658;SDS011;30378;50.186;8.644;2022-09-09T01:28:31;2.35;;;1.05;;
44658;SDS011;30378;50.186;8.644;2022-09-09T01:31:07;3.45;;;0.90;;
44658;SDS011;30378;50.186;8.644;2022-09-09T01:33:42;3.83;;;0.90;;
44658;SDS011;30378;50.186;8.644;2022-09-09T01:36:15;2.20;;;0.70;;
44658;SDS011;30378;50.186;8.644;2022-09-09T01:38:58;4.45;;;0.93;;
44658;SDS011;30378;50.186;8.644;2022-09-09T01:41:26;3.63;;;1.45;;
44658;SDS011;30378;50.186;8.644;2022-09-09T01:44:02;2.67;;;1.40;;
44658;SDS011;30378;50.186;8.644;2022-09-09T01:46:32;2.92;;;0.63;;
44658;SDS011;30378;50.186;8.644;2022-09-09T01:49:02;5.25;;;1.10;;
44658;SDS011;30378;50.186;8.644;2022-09-09T01:51:31;2.22;;;0.98;;
44658;SDS011;30378;50.186;8.644;2022-09-09T01:54:04;4.55;;;1.50;;
44658;SDS011;30378;50.186;8.644;2022-09-09T02:02:11;2.97;;;1.17;;
44658;SDS011;30378;50.186;8.644;2022-09-09T02:04:57;3.78;;;1.35;;
44658;SDS011;30378;50.186;8.644;2022-09-09T02:10:45;3.67;;;0.90;;
44658;SDS011;30378;50.186;8.644;2022-09-09T02:14:12;4.80;;;1.30;;
44658;SDS011;30378;50.186;8.644;2022-09-09T02:16:50;4.65;;;1.50;;
44658;SDS011;30378;50.186;8.644;2022-09-09T02:19:53;4.80;;;0.80;;
44658;SDS011;30378;50.186;8.644;2022-09-09T02:22:39;8.82;;;1.92;;
44658;SDS011;30378;50.186;8.644;2022-09-09T02:25:13;4.50;;;1.40;;
44658;SDS011;30378;50.186;8.644;2022-09-09T02:27:45;4.55;;;1.02;;
44658;SDS011;30378;50.186;8.644;2022-09-09T02:30:16;3.38;;;1.05;;
44658;SDS011;30378;50.186;8.644;2022-09-09T02:32:52;4.25;;;1.33;;
44658;SDS011;30378;50.186;8.644;2022-09-09T02:35:39;2.67;;;1.65;;
44658;SDS011;30378;50.186;8.644;2022-09-09T02:38:10;5.18;;;1.38;;
44658;SDS011;30378;50.186;8.644;2022-09-09T02:40:46;5.13;;;1.33;;
44658;SDS011;30378;50.186;8.644;2022-09-09T02:43:14;4.47;;;1.85;;
44658;SDS011;30378;50.186;8.644;2022-09-09T02:45:50;7.45;;;1.70;;
44658;SDS011;30378;50.186;8.644;2022-09-09T02:53:43;6.10;;;2.63;;
44658;SDS011;30378;50.186;8.644;2022-09-09T02:56:15;3.63;;;1.60;;
44658;SDS011;30378;50.186;8.644;2022-09-09T02:58:47;4.43;;;1.83;;
44658;SDS011;30378;50.186;8.644;2022-09-09T03:01:16;4.43;;;1.45;;
44658;SDS011;30378;50.186;8.644;2022-09-09T03:03:44;2.95;;;1.30;;
44658;SDS011;30378;50.186;8.644;2022-09-09T03:06:15;5.00;;;2.72;;
44658;SDS011;30378;50.186;8.644;2022-09-09T03:08:48;3.85;;;1.10;;
44658;SDS011;30378;50.186;8.644;2022-09-09T03:11:22;3.30;;;1.15;;
44658;SDS011;30378;50.186;8.644;2022-09-09T03:13:50;4.65;;;1.75;;
44658;SDS011;30378;50.186;8.644;2022-09-09T03:16:19;5.38;;;1.70;;
44658;SDS011;30378;50.186;8.644;2022-09-09T03:18:50;5.00;;;1.73;;
44658;SDS011;30378;50.186;8.644;2022-09-09T03:21:19;4.15;;;1.67;;
44658;SDS011;30378;50.186;8.644;2022-09-09T03:23:47;7.00;;;1.48;;
44658;SDS011;30378;50.186;8.644;2022-09-09T03:26:15;3.88;;;1.95;;
44658;SDS011;30378;50.186;8.644;2022-09-09T03:28:44;4.85;;;1.67;;
44658;SDS011;30378;50.186;8.644;2022-09-09T03:31:16;4.85;;;1.40;;
44658;SDS011;30378;50.186;8.644;2022-09-09T03:33:44;4.95;;;1.85;;
44658;SDS011;30378;50.186;8.644;2022-09-09T03:36:14;4.50;;;1.33;;
44658;SDS011;30378;50.186;8.644;2022-09-09T03:38:41;5.65;;;1.63;;
44658;SDS011;30378;50.186;8.644;2022-09-09T03:41:09;6.50;;;2.45;;
44658;SDS011;30378;50.186;8.644;2022-09-09T03:43:38;3.80;;;1.90;;
44658;SDS011;30378;50.186;8.644;2022-09-09T03:46:05;4.20;;;1.38;;
44658;SDS011;30378;50.186;8.644;2022-09-09T03:48:32;3.25;;;2.05;;
44658;SDS011;30378;50.186;8.644;2022-09-09T03:51:00;4.70;;;1.90;;
44658;SDS011;30378;50.186;8.644;2022-09-09T03:53:30;3.95;;;1.55;;
44658;SDS011;30378;50.186;8.644;2022-09-09T03:55:59;5.45;;;2.25;;
44658;SDS011;30378;50.186;8.644;2022-09-09T03:58:29;3.83;;;1.67;;
44658;SDS011;30378;50.186;8.644;2022-09-09T04:01:04;6.40;;;1.20;;
44658;SDS011;30378;50.186;8.644;2022-09-09T04:03:36;3.60;;;1.88;;
44658;SDS011;30378;50.186;8.644;2022-09-09T04:06:04;4.78;;;1.63;;
44658;SDS011;30378;50.186;8.644;2022-09-09T04:08:33;3.85;;;1.10;;
44658;SDS011;30378;50.186;8.644;2022-09-09T04:11:02;4.32;;;1.42;;
44658;SDS011;30378;50.186;8.644;2022-09-09T04:13:34;6.20;;;1.77;;
44658;SDS011;30378;50.186;8.644;2022-09-09T04:16:05;4.50;;;1.10;;
44658;SDS011;30378;50.186;8.644;2022-09-09T04:18:35;3.75;;;1.75;;
44658;SDS011;30378;50.186;8.644;2022-09-09T04:21:02;3.13;;;1.73;;
44658;SDS011;30378;50.186;8.644;2022-09-09T04:23:32;3.13;;;1.20;;
44658;SDS011;30378;50.186;8.644;2022-09-09T04:26:01;6.15;;;1.45;;
44658;SDS011;30378;50.186;8.644;2022-09-09T04:28:30;6.60;;;1.17;;
44658;SDS011;30378;50.186;8.644;2022-09-09T04:31:06;4.60;;;1.08;;
44658;SDS011;30378;50.186;8.644;2022-09-09T04:33:37;4.97;;;1.75;;
44658;SDS011;30378;50.186;8.644;2022-09-09T04:36:07;4.78;;;1.25;;
44658;SDS011;30378;50.186;8.644;2022-09-09T04:38:35;6.70;;;1.35;;
44658;SDS011;30378;50.186;8.644;2022-09-09T04:41:03;4.97;;;1.50;;
44658;SDS011;30378;50.186;8.644;2022-09-09T04:43:33;4.22;;;2.35;;
44658;SDS011;30378;50.186;8.644;2022-09-09T04:46:03;4.53;;;1.75;;
44658;SDS011;30378;50.186;8.644;2022-09-09T04:48:32;3.13;;;1.33;;
44658;SDS011;30378;50.186;8.644;2022-09-09T04:51:02;3.88;;;1.42;;
44658;SDS011;30378;50.186;8.644;2022-09-09T04:53:35;5.75;;;2.20;;
44658;SDS011;30378;50.186;8.644;2022-09-09T04:58:38;4.97;;;1.48;;
44658;SDS011;30378;50.186;8.644;2022-09-09T05:01:07;6.78;;;1.50;;
44658;SDS011;30378;50.186;8.644;2022-09-09T05:03:41;9.25;;;1.80;;
44658;SDS011;30378;50.186;8.644;2022-09-09T05:06:12;5.20;;;1.67;;
44658;SDS011;30378;50.186;8.644;2022-09-09T05:08:42;4.32;;;1.67;;
44658;SDS011;30378;50.186;8.644;2022-09-09T05:11:20;5.50;;;1.50;;
44658;SDS011;30378;50.186;8.644;2022-09-09T05:13:56;6.05;;;1.70;;
44658;SDS011;30378;50.186;8.644;2022-09-09T05:16:24;4.93;;;1.45;;
44658;SDS011;30378;50.186;8.644;2022-09-09T05:18:52;3.95;;;1.33;;
44658;SDS011;30378;50.186;8.644;2022-09-09T05:21:20;4.40;;;1.30;;
44658;SDS011;30378;50.186;8.644;2022-09-09T05:23:49;4.45;;;2.13;;
44658;SDS011;30378;50.186;8.644;2022-09-09T05:26:19;4.88;;;1.25;;
44658;SDS011;30378;50.186;8.644;2022-09-09T05:28:51;4.47;;;1.33;;
44658;SDS011;30378;50.186;8.644;2022-09-09T05:31:18;3.75;;;1.10;;
44658;SDS011;30378;50.186;8.644;2022-09-09T05:33:49;3.53;;;1.00;;
44658;SDS011;30378;50.186;8.644;2022-09-09T05:36:17;2.35;;;0.80;;
44658;SDS011;30378;50.186;8.644;2022-09-09T05:38:50;5.15;;;2.20;;
44658;SDS011;30378;50.186;8.644;2022-09-09T05:41:18;2.03;;;1.00;;
44658;SDS011;30378;50.186;8.644;2022-09-09T05:43:47;6.53;;;1.10;;
44658;SDS011;30378;50.186;8.644;2022-09-09T05:46:17;6.35;;;1.23;;
44658;SDS011;30378;50.186;8.644;2022-09-09T05:48:48;4.20;;;1.15;;
44658;SDS011;30378;50.186;8.644;2022-09-09T05:51:23;4.57;;;2.13;;
44658;SDS011;30378;50.186;8.644;2022-09-09T05:53:55;3.00;;;0.90;;
44658;SDS011;30378;50.186;8.644;2022-09-09T05:56:28;3.65;;;1.20;;
44658;SDS011;30378;50.186;8.644;2022-09-09T05:58:58;2.45;;;1.45;;
44658;SDS011;30378;50.186;8.644;2022-09-09T06:01:36;6.90;;;1.80;;
44658;SDS011;30378;50.186;8.644;2022-09-09T06:04:13;4.25;;;1.20;;
44658;SDS011;30378;50.186;8.644;2022-09-09T06:06:40;3.67;;;1.38;;
44658;SDS011;30378;50.186;8.644;2022-09-09T06:09:14;3.08;;;1.05;;
44658;SDS011;30378;50.186;8.644;2022-09-09T06:11:42;2.90;;;0.80;;
44658;SDS011;30378;50.186;8.644;2022-09-09T06:14:11;2.60;;;0.95;;
44658;SDS011;30378;50.186;8.644;2022-09-09T06:16:39;5.45;;;1.20;;
44658;SDS011;30378;50.186;8.644;2022-09-09T06:19:16;3.67;;;1.20;;
44658;SDS011;30378;50.186;8.644;2022-09-09T06:21:44;6.32;;;0.90;;
44658;SDS011;30378;50.186;8.644;2022-09-09T06:24:12;2.63;;;0.63;;
44658;SDS011;30378;50.186;8.644;2022-09-09T06:26:41;3.28;;;1.30;;
44658;SDS011;30378;50.186;8.644;2022-09-09T06:29:11;3.47;;;0.82;;
44658;SDS011;30378;50.186;8.644;2022-09-09T06:31:40;3.15;;;1.27;;
44658;SDS011;30378;50.186;8.644;2022-09-09T06:34:22;3.70;;;1.13;;
44658;SDS011;30378;50.186;8.644;2022-09-09T06:36:54;2.63;;;1.52;;
44658;SDS011;30378;50.186;8.644;2022-09-09T06:39:24;2.78;;;0.73;;
44658;SDS011;30378;50.186;8.644;2022-09-09T06:41:54;5.38;;;1.52;;
44658;SDS011;30378;50.186;8.644;2022-09-09T06:44:41;5.40;;;0.70;;
44658;SDS011;30378;50.186;8.644;2022-09-09T06:47:12;3.58;;;1.23;;
44658;SDS011;30378;50.186;8.644;2022-09-09T06:49:41;4.68;;;1.30;;
44658;SDS011;30378;50.186;8.644;2022-09-09T06:52:13;2.95;;;0.73;;
44658;SDS011;30378;50.186;8.644;2022-09-09T06:54:40;4.68;;;1.17;;
44658;SDS011;30378;50.186;8.644;2022-09-09T06:57:08;5.22;;;1.00;;
44658;SDS011;30378;50.186;8.644;2022-09-09T06:59:47;3.22;;;1.77;;
44658;SDS011;30378;50.186;8.644;2022-09-09T07:02:15;2.53;;;0.85;;
44658;SDS011;30378;50.186;8.644;2022-09-09T07:04:43;7.00;;;0.90;;
44658;SDS011;30378;50.186;8.644;2022-09-09T07:07:11;3.72;;;1.35;;
44658;SDS011;30378;50.186;8.644;2022-09-09T07:09:41;4.57;;;0.88;;
44658;SDS011;30378;50.186;8.644;2022-09-09T07:12:08;5.47;;;1.20;;
44658;SDS011;30378;50.186;8.644;2022-09-09T07:14:39;2.63;;;0.60;;
44658;SDS011;30378;50.186;8.644;2022-09-09T07:17:09;4.38;;;1.00;;
44658;SDS011;30378;50.186;8.644;2022-09-09T07:19:38;2.15;;;0.60;;
44658;SDS011;30378;50.186;8.644;2022-09-09T07:22:08;3.47;;;1.42;;
44658;SDS011;30378;50.186;8.644;2022-09-09T07:24:36;5.05;;;1.20;;
44658;SDS011;30378;50.186;8.644;2022-09-09T07:27:03;6.15;;;1.80;;
44658;SDS011;30378;50.186;8.644;2022-09-09T07:29:34;2.47;;;0.85;;
44658;SDS011;30378;50.186;8.644;2022-09-09T07:32:02;6.43;;;2.75;;
44658;SDS011;30378;50.186;8.644;2022-09-09T07:34:34;5.22;;;1.40;;
44658;SDS011;30378;50.186;8.644;2022-09-09T07:37:02;3.72;;;1.33;;
44658;SDS011;30378;50.186;8.644;2022-09-09T07:39:31;3.15;;;0.50;;
44658;SDS011;30378;50.186;8.644;2022-09-09T07:41:58;3.15;;;1.38;;
44658;SDS011;30378;50.186;8.644;2022-09-09T07:44:26;4.05;;;0.73;;
44658;SDS011;30378;50.186;8.644;2022-09-09T07:47:01;5.82;;;0.60;;
44658;SDS011;30378;50.186;8.644;2022-09-09T07:49:37;2.90;;;0.77;;
44658;SDS011;30378;50.186;8.644;2022-09-09T07:52:06;5.15;;;0.80;;
44658;SDS011;30378;50.186;8.644;2022-09-09T07:54:42;3.53;;;0.52;;
44658;SDS011;30378;50.186;8.644;2022-09-09T07:57:10;3.75;;;1.35;;
44658;SDS011;30378;50.186;8.644;2022-09-09T07:59:37;3.45;;;1.02;;
44658;SDS011;30378;50.186;8.644;2022-09-09T08:02:04;1.42;;;0.43;;
44658;SDS011;30378;50.186;8.644;2022-09-09T08:04:34;6.07;;;0.80;;
44658;SDS011;30378;50.186;8.644;2022-09-09T08:07:02;2.17;;;1.35;;
44658;SDS011;30378;50.186;8.644;2022-09-09T08:09:36;2.45;;;1.27;;
44658;SDS011;30378;50.186;8.644;2022-09-09T08:12:19;4.40;;;0.80;;
44658;SDS011;30378;50.186;8.644;2022-09-09T08:14:47;3.33;;;0.80;;
44658;SDS011;30378;50.186;8.644;2022-09-09T08:17:15;4.93;;;0.95;;
44658;SDS011;30378;50.186;8.644;2022-09-09T08:19:43;4.65;;;1.00;;
44658;SDS011;30378;50.186;8.644;2022-09-09T08:22:17;2.28;;;0.60;;
44658;SDS011;30378;50.186;8.644;2022-09-09T08:24:44;2.78;;;0.70;;
44658;SDS011;30378;50.186;8.644;2022-09-09T08:27:11;2.15;;;1.17;;
44658;SDS011;30378;50.186;8.644;2022-09-09T08:29:39;3.15;;;0.75;;
44658;SDS011;30378;50.186;8.644;2022-09-09T08:32:07;5.18;;;0.88;;
44658;SDS011;30378;50.186;8.644;2022-09-09T08:34:37;4.07;;;0.85;;
44658;SDS011;30378;50.186;8.644;2022-09-09T08:37:09;3.90;;;0.82;;
44658;SDS011;30378;50.186;8.644;2022-09-09T08:39:39;3.85;;;0.73;;
44658;SDS011;30378;50.186;8.644;2022-09-09T08:42:49;3.83;;;1.27;;
44658;SDS011;30378;50.186;8.644;2022-09-09T08:45:19;4.47;;;1.10;;
44658;SDS011;30378;50.186;8.644;2022-09-09T08:48:04;3.53;;;1.17;;
44658;SDS011;30378;50.186;8.644;2022-09-09T08:50:49;7.70;;;1.10;;
44658;SDS011;30378;50.186;8.644;2022-09-09T08:53:29;4.47;;;1.55;;
44658;SDS011;30378;50.186;8.644;2022-09-09T08:56:10;4.15;;;0.80;;
44658;SDS011;30378;50.186;8.644;2022-09-09T08:58:51;7.40;;;1.95;;
44658;SDS011;30378;50.186;8.644;2022-09-09T09:12:58;3.88;;;1.23;;
44658;SDS011;30378;50.186;8.644;2022-09-09T09:15:31;3.50;;;1.10;;
44658;SDS011;30378;50.186;8.644;2022-09-09T09:18:04;6.05;;;0.80;;
44658;SDS011;30378;50.186;8.644;2022-09-09T09:20:40;4.50;;;1.15;;
44658;SDS011;30378;50.186;8.644;2022-09-09T09:23:19;7.78;;;1.60;;
44658;SDS011;30378;50.186;8.644;2022-09-09T09:25:53;7.30;;;1.33;;
44658;SDS011;30378;50.186;8.644;2022-09-09T09:28:29;3.28;;;1.30;;
44658;SDS011;30378;50.186;8.644;2022-09-09T09:36:08;5.10;;;0.90;;
44658;SDS011;30378;50.186;8.644;2022-09-09T09:38:39;4.70;;;1.00;;
44658;SDS011;30378;50.186;8.644;2022-09-09T09:41:38;6.88;;;1.95;;
44658;SDS011;30378;50.186;8.644;2022-09-09T09:44:29;7.25;;;1.60;;
44658;SDS011;30378;50.186;8.644;2022-09-09T09:47:17;5.75;;;1.83;;
44658;SDS011;30378;50.186;8.644;2022-09-09T09:49:58;4.25;;;1.35;;
44658;SDS011;30378;50.186;8.644;2022-09-09T09:52:31;4.78;;;1.60;;
44658;SDS011;30378;50.186;8.644;2022-09-09T09:55:02;4.78;;;0.55;;
44658;SDS011;30378;50.186;8.644;2022-09-09T09:57:34;4.00;;;0.90;;
44658;SDS011;30378;50.186;8.644;2022-09-09T10:00:17;5.97;;;0.85;;
44658;SDS011;30378;50.186;8.644;2022-09-09T10:02:53;8.63;;;1.55;;
44658;SDS011;30378;50.186;8.644;2022-09-09T10:05:27;8.70;;;1.35;;
44658;SDS011;30378;50.186;8.644;2022-09-09T10:08:08;6.63;;;1.20;;
44658;SDS011;30378;50.186;8.644;2022-09-09T10:19:36;7.57;;;1.67;;
44658;SDS011;30378;50.186;8.644;2022-09-09T10:25:21;5.75;;;2.78;;
44658;SDS011;30378;50.186;8.644;2022-09-09T10:36:45;10.13;;;2.00;;
44658;SDS011;30378;50.186;8.644;2022-09-09T10:42:15;6.07;;;2.10;;
44658;SDS011;30378;50.186;8.644;2022-09-09T10:47:33;7.95;;;1.75;;
44658;SDS011;30378;50.186;8.644;2022-09-09T10:56:11;8.05;;;1.95;;
44658;SDS011;30378;50.186;8.644;2022-09-09T10:58:49;5.63;;;1.65;;
44658;SDS011;30378;50.186;8.644;2022-09-09T11:01:34;5.43;;;2.10;;
44658;SDS011;30378;50.186;8.644;2022-09-09T11:04:32;7.10;;;1.90;;
44658;SDS011;30378;50.186;8.644;2022-09-09T11:07:07;4.38;;;1.50;;
44658;SDS011;30378;50.186;8.644;2022-09-09T11:09:39;7.78;;;1.50;;
44658;SDS011;30378;50.186;8.644;2022-09-09T11:12:13;4.55;;;1.83;;
44658;SDS011;30378;50.186;8.644;2022-09-09T11:14:48;7.50;;;2.33;;
44658;SDS011;30378;50.186;8.644;2022-09-09T11:17:24;7.00;;;1.80;;
44658;SDS011;30378;50.186;8.644;2022-09-09T11:19:57;4.43;;;2.25;;
44658;SDS011;30378;50.186;8.644;2022-09-09T11:22:30;4.82;;;1.80;;
44658;SDS011;30378;50.186;8.644;2022-09-09T11:25:36;4.80;;;1.42;;
44658;SDS011;30378;50.186;8.644;2022-09-09T11:36:03;2.45;;;1.30;;
44658;SDS011;30378;50.186;8.644;2022-09-09T11:41:49;1.63;;;1.23;;
44658;SDS011;30378;50.186;8.644;2022-09-09T11:44:21;3.75;;;0.43;;
44658;SDS011;30378;50.186;8.644;2022-09-09T11:46:57;3.65;;;0.43;;
44658;SDS011;30378;50.186;8.644;2022-09-09T11:49:28;2.83;;;0.60;;
44658;SDS011;30378;50.186;8.644;2022-09-09T11:52:12;2.10;;;0.90;;
44658;SDS011;30378;50.186;8.644;2022-09-09T11:54:48;2.78;;;0.90;;
44658;SDS011;30378;50.186;8.644;2022-09-09T11:57:24;2.30;;;0.68;;
44658;SDS011;30378;50.186;8.644;2022-09-09T11:59:57;4.70;;;0.80;;
44658;SDS011;30378;50.186;8.644;2022-09-09T12:02:26;4.20;;;0.80;;
44658;SDS011;30378;50.186;8.644;2022-09-09T12:04:59;2.53;;;1.20;;
44658;SDS011;30378;50.186;8.644;2022-09-09T12:07:33;4.28;;;1.02;;
44658;SDS011;30378;50.186;8.644;2022-09-09T12:12:35;4.30;;;0.82;;
44658;SDS011;30378;50.186;8.644;2022-09-09T12:17:41;4.20;;;0.98;;
44658;SDS011;30378;50.186;8.644;2022-09-09T12:20:14;4.78;;;1.60;;
44658;SDS011;30378;50.186;8.644;2022-09-09T12:33:34;1.85;;;0.43;;
44658;SDS011;30378;50.186;8.644;2022-09-09T12:36:04;6.80;;;1.35;;
44658;SDS011;30378;50.186;8.644;2022-09-09T12:38:42;1.90;;;0.50;;
44658;SDS011;30378;50.186;8.644;2022-09-09T12:41:19;2.15;;;0.45;;
44658;SDS011;30378;50.186;8.644;2022-09-09T12:44:04;4.47;;;0.68;;
44658;SDS011;30378;50.186;8.644;2022-09-09T12:46:34;5.18;;;0.60;;
44658;SDS011;30378;50.186;8.644;2022-09-09T12:49:04;2.13;;;0.43;;
44658;SDS011;30378;50.186;8.644;2022-09-09T12:51:33;4.13;;;0.73;;
44658;SDS011;30378;50.186;8.644;2022-09-09T12:54:01;2.72;;;0.32;;
44658;SDS011;30378;50.186;8.644;2022-09-09T12:56:29;1.55;;;0.63;;
44658;SDS011;30378;50.186;8.644;2022-09-09T12:58:59;1.55;;;0.15;;
44658;SDS011;30378;50.186;8.644;2022-09-09T13:01:28;1.77;;;0.40;;
44658;SDS011;30378;50.186;8.644;2022-09-09T13:03:57;1.85;;;0.20;;
44658;SDS011;30378;50.186;8.644;2022-09-09T13:06:31;3.03;;;0.40;;
44658;SDS011;30378;50.186;8.644;2022-09-09T13:09:02;2.42;;;0.68;;
44658;SDS011;30378;50.186;8.644;2022-09-09T13:11:38;1.40;;;0.32;;
44658;SDS011;30378;50.186;8.644;2022-09-09T13:14:17;3.13;;;1.05;;
44658;SDS011;30378;50.186;8.644;2022-09-09T13:16:59;2.40;;;0.73;;
44658;SDS011;30378;50.186;8.644;2022-09-09T13:19:29;1.55;;;0.40;;
44658;SDS011;30378;50.186;8.644;2022-09-09T13:22:10;3.95;;;0.60;;
44658;SDS011;30378;50.186;8.644;2022-09-09T13:24:45;2.85;;;0.40;;
44658;SDS011;30378;50.186;8.644;2022-09-09T13:30:26;2.72;;;0.75;;
44658;SDS011;30378;50.186;8.644;2022-09-09T13:35:47;2.47;;;0.30;;
44658;SDS011;30378;50.186;8.644;2022-09-09T13:38:27;0.82;;;0.20;;
44658;SDS011;30378;50.186;8.644;2022-09-09T13:40:59;1.80;;;0.50;;
44658;SDS011;30378;50.186;8.644;2022-09-09T13:43:31;4.05;;;1.02;;
44658;SDS011;30378;50.186;8.644;2022-09-09T13:49:00;2.08;;;0.30;;
44658;SDS011;30378;50.186;8.644;2022-09-09T13:51:49;5.03;;;0.55;;
44658;SDS011;30378;50.186;8.644;2022-09-09T13:54:19;2.70;;;0.45;;
44658;SDS011;30378;50.186;8.644;2022-09-09T13:56:47;1.33;;;0.30;;
44658;SDS011;30378;50.186;8.644;2022-09-09T13:59:17;1.60;;;1.00;;
44658;SDS011;30378;50.186;8.644;2022-09-09T14:01:46;2.55;;;1.20;;
44658;SDS011;30378;50.186;8.644;2022-09-09T14:04:15;1.65;;;0.22;;
44658;SDS011;30378;50.186;8.644;2022-09-09T14:06:43;4.00;;;0.47;;
44658;SDS011;30378;50.186;8.644;2022-09-09T14:09:11;0.98;;;0.70;;
44658;SDS011;30378;50.186;8.644;2022-09-09T14:11:42;3.70;;;0.40;;
44658;SDS011;30378;50.186;8.644;2022-09-09T14:14:09;2.15;;;0.70;;
44658;SDS011;30378;50.186;8.644;2022-09-09T14:16:36;2.88;;;0.70;;
44658;SDS011;30378;50.186;8.644;2022-09-09T14:19:04;2.35;;;0.63;;
44658;SDS011;30378;50.186;8.644;2022-09-09T14:21:31;7.68;;;0.30;;
44658;SDS011;30378;50.186;8.644;2022-09-09T14:23:59;2.20;;;0.70;;
44658;SDS011;30378;50.186;8.644;2022-09-09T14:26:26;1.17;;;0.20;;
44658;SDS011;30378;50.186;8.644;2022-09-09T14:28:55;2.88;;;0.22;;
44658;SDS011;30378;50.186;8.644;2022-09-09T14:31:23;1.98;;;0.20;;
44658;SDS011;30378;50.186;8.644;2022-09-09T14:33:58;2.25;;;0.25;;
44658;SDS011;30378;50.186;8.644;2022-09-09T14:36:25;1.55;;;0.70;;
44658;SDS011;30378;50.186;8.644;2022-09-09T14:38:52;3.00;;;0.82;;
44658;SDS011;30378;50.186;8.644;2022-09-09T14:41:19;1.77;;;0.20;;
44658;SDS011;30378;50.186;8.644;2022-09-09T14:43:49;1.55;;;0.32;;
44658;SDS011;30378;50.186;8.644;2022-09-09T14:46:17;3.90;;;0.30;;
44658;SDS011;30378;50.186;8.644;2022-09-09T14:48:46;4.32;;;0.90;;
44658;SDS011;30378;50.186;8.644;2022-09-09T14:51:20;0.95;;;0.50;;
44658;SDS011;30378;50.186;8.644;2022-09-09T14:53:53;2.20;;;0.50;;
44658;SDS011;30378;50.186;8.644;2022-09-09T14:56:22;2.88;;;0.13;;
44658;SDS011;30378;50.186;8.644;2022-09-09T14:58:55;1.15;;;0.30;;
44658;SDS011;30378;50.186;8.644;2022-09-09T15:01:24;2.00;;;0.82;;
44658;SDS011;30378;50.186;8.644;2022-09-09T15:03:54;1.90;;;0.30;;
44658;SDS011;30378;50.186;8.644;2022-09-09T15:06:26;2.58;;;1.08;;
44658;SDS011;30378;50.186;8.644;2022-09-09T15:08:56;6.07;;;0.40;;
44658;SDS011;30378;50.186;8.644;2022-09-09T15:11:28;1.45;;;0.20;;
44658;SDS011;30378;50.186;8.644;2022-09-09T15:14:01;1.70;;;0.80;;
44658;SDS011;30378;50.186;8.644;2022-09-09T15:16:28;2.75;;;0.57;;
44658;SDS011;30378;50.186;8.644;2022-09-09T15:18:56;4.10;;;0.45;;
44658;SDS011;30378;50.186;8.644;2022-09-09T15:21:25;1.77;;;0.32;;
44658;SDS011;30378;50.186;8.644;2022-09-09T15:23:54;2.45;;;0.20;;
44658;SDS011;30378;50.186;8.644;2022-09-09T15:26:22;2.92;;;0.30;;
44658;SDS011;30378;50.186;8.644;2022-09-09T15:28:50;4.03;;;0.20;;
44658;SDS011;30378;50.186;8.644;2022-09-09T15:31:27;2.80;;;0.50;;
44658;SDS011;30378;50.186;8.644;2022-09-09T15:33:58;1.60;;;0.80;;
44658;SDS011;30378;50.186;8.644;2022-09-09T15:36:32;3.55;;;0.30;;
44658;SDS011;30378;50.186;8.644;2022-09-09T15:41:29;2.50;;;0.35;;
44658;SDS011;30378;50.186;8.644;2022-09-09T15:43:58;2.40;;;1.13;;
44658;SDS011;30378;50.186;8.644;2022-09-09T15:49:13;2.20;;;0.80;;
44658;SDS011;30378;50.186;8.644;2022-09-09T15:51:44;2.58;;;0.28;;
44658;SDS011;30378;50.186;8.644;2022-09-09T15:54:14;3.88;;;0.80;;
44658;SDS011;30378;50.186;8.644;2022-09-09T15:56:44;2.40;;;0.52;;
44658;SDS011;30378;50.186;8.644;2022-09-09T15:59:13;2.50;;;0.88;;
44658;SDS011;30378;50.186;8.644;2022-09-09T16:01:41;2.03;;;0.77;;
44658;SDS011;30378;50.186;8.644;2022-09-09T16:04:10;3.00;;;1.10;;
44658;SDS011;30378;50.186;8.644;2022-09-09T16:06:37;3.42;;;0.38;;
44658;SDS011;30378;50.186;8.644;2022-09-09T16:09:06;3.03;;;0.30;;
44658;SDS011;30378;50.186;8.644;2022-09-09T16:11:34;2.08;;;0.70;;
44658;SDS011;30378;50.186;8.644;2022-09-09T16:14:03;5.00;;;0.40;;
44658;SDS011;30378;50.186;8.644;2022-09-09T16:16:33;6.80;;;1.20;;
44658;SDS011;30378;50.186;8.644;2022-09-09T16:19:05;1.05;;;0.40;;
44658;SDS011;30378;50.186;8.644;2022-09-09T16:21:35;2.35;;;0.10;;
44658;SDS011;30378;50.186;8.644;2022-09-09T16:24:04;2.10;;;0.80;;
44658;SDS011;30378;50.186;8.644;2022-09-09T16:26:33;3.00;;;1.00;;
44658;SDS011;30378;50.186;8.644;2022-09-09T16:29:02;3.80;;;0.40;;
44658;SDS011;30378;50.186;8.644;2022-09-09T16:31:30;2.50;;;0.70;;
44658;SDS011;30378;50.186;8.644;2022-09-09T16:34:00;2.72;;;0.70;;
44658;SDS011;30378;50.186;8.644;2022-09-09T16:36:32;2.20;;;0.65;;
44658;SDS011;30378;50.186;8.644;2022-09-09T16:39:04;2.17;;;0.60;;
44658;SDS011;30378;50.186;8.644;2022-09-09T16:41:33;2.40;;;0.15;;
44658;SDS011;30378;50.186;8.644;2022-09-09T16:44:01;0.80;;;0.30;;
44658;SDS011;30378;50.186;8.644;2022-09-09T16:46:32;1.90;;;0.20;;
44658;SDS011;30378;50.186;8.644;2022-09-09T16:49:02;6.25;;;0.93;;
44658;SDS011;30378;50.186;8.644;2022-09-09T16:51:32;2.47;;;0.80;;
44658;SDS011;30378;50.186;8.644;2022-09-09T16:54:02;2.80;;;0.40;;
44658;SDS011;30378;50.186;8.644;2022-09-09T16:56:33;1.75;;;0.35;;
44658;SDS011;30378;50.186;8.644;2022-09-09T16:59:05;1.52;;;0.30;;
44658;SDS011;30378;50.186;8.644;2022-09-09T17:01:34;2.10;;;0.20;;
44658;SDS011;30378;50.186;8.644;2022-09-09T17:04:26;1.10;;;0.38;;
44658;SDS011;30378;50.186;8.644;2022-09-09T17:06:54;1.33;;;1.15;;
44658;SDS011;30378;50.186;8.644;2022-09-09T17:09:24;1.98;;;0.43;;
44658;SDS011;30378;50.186;8.644;2022-09-09T17:11:55;3.38;;;0.40;;
44658;SDS011;30378;50.186;8.644;2022-09-09T17:14:22;1.48;;;0.77;;
44658;SDS011;30378;50.186;8.644;2022-09-09T17:16:50;2.25;;;0.65;;
44658;SDS011;30378;50.186;8.644;2022-09-09T17:19:17;1.08;;;0.30;;
44658;SDS011;30378;50.186;8.644;2022-09-09T17:21:45;2.30;;;0.70;;
44658;SDS011;30378;50.186;8.644;2022-09-09T17:24:34;4.00;;;0.65;;
44658;SDS011;30378;50.186;8.644;2022-09-09T17:27:01;2.05;;;0.30;;
44658;SDS011;30378;50.186;8.644;2022-09-09T17:29:29;1.70;;;0.40;;